Terminal Aerodrome Forecast
Issued by NWS

Home | Current Version | Previous Version | Text Only | Print | Product List | Glossary On
Versions: 1 2 3 4 5 6 7 8 9 10 11 12 13 14
560
FTUS45 KGGW 311728
TAFSDY
TAF
KSDY 311728Z 3118/0118 34022G30KT 6SM -RA BR SCT015 OVC025
     FM312100 33025G35KT 6SM -SHRA OVC020
     FM010000 33017G25KT P6SM VCTS OVC025CB
     FM010300 32010KT P6SM VCSH BKN025
     FM010500 32010KT P6SM VCSH BKN070
     FM010600 31007KT P6SM SCT070=

USA.gov is the U.S. government's official web portal to all federal, state and local government web resources and services.